createdAt,value
2023-01-12T00:04:58.445Z,80.50
2023-01-12T00:13:21.057Z,80.48
2023-01-12T00:21:55.795Z,80.54
2023-01-12T00:30:18.304Z,80.64
2023-01-12T00:38:41.123Z,80.57
2023-01-12T00:47:07.062Z,80.65
2023-01-12T00:55:28.973Z,80.68
2023-01-12T01:03:52.631Z,80.75
2023-01-12T01:12:15.850Z,80.66
2023-01-12T01:20:38.415Z,80.65
2023-01-12T01:29:01.257Z,80.71
2023-01-12T01:37:23.115Z,80.62
2023-01-12T01:45:56.717Z,80.72
2023-01-12T01:54:18.972Z,80.77
2023-01-12T02:02:45.920Z,80.79
2023-01-12T02:11:28.373Z,80.90
2023-01-12T02:20:48.175Z,80.90
2023-01-12T02:29:43.311Z,80.89
2023-01-12T02:38:08.383Z,80.92
2023-01-12T02:46:32.168Z,80.98
2023-01-12T02:54:56.832Z,81.12
2023-01-12T03:03:22.507Z,81.12
2023-01-12T03:11:48.105Z,81.24
2023-01-12T03:20:16.408Z,81.24
2023-01-12T03:28:43.589Z,81.13
2023-01-12T03:37:08.864Z,81.12
2023-01-12T03:45:49.782Z,81.20
2023-01-12T03:54:15.323Z,81.38
2023-01-12T04:02:42.295Z,81.35
2023-01-12T04:11:24.546Z,81.43
2023-01-12T04:19:48.389Z,81.44
2023-01-12T04:28:11.260Z,81.45
2023-01-12T04:36:34.332Z,81.41
2023-01-12T04:44:56.854Z,81.62
2023-01-12T04:53:21.324Z,81.55
2023-01-12T05:01:44.388Z,81.68
2023-01-12T05:10:24.017Z,81.76
2023-01-12T05:18:47.029Z,81.83
2023-01-12T06:49:22.944Z,81.87
2023-01-12T06:57:46.120Z,81.88
2023-01-12T07:06:09.769Z,81.95
2023-01-12T07:14:57.147Z,82.08
2023-01-12T07:23:23.286Z,82.02
2023-01-12T08:48:58.788Z,82.20
2023-01-12T08:57:21.399Z,82.16
2023-01-12T09:14:38.212Z,81.95
2023-01-12T09:23:03.411Z,82.11
2023-01-12T09:31:28.217Z,82.14
2023-01-12T09:39:50.933Z,82.25
2023-01-12T09:48:13.778Z,82.35
2023-01-12T09:57:35.917Z,82.25
2023-01-12T10:06:15.557Z,82.21
2023-01-12T10:14:49.011Z,82.31
2023-01-12T10:23:16.251Z,82.32
2023-01-12T10:31:39.052Z,82.43
2023-01-12T10:40:04.089Z,82.44
2023-01-12T10:48:27.591Z,82.26
2023-01-12T10:57:01.403Z,82.25
2023-01-12T11:05:29.741Z,82.42
2023-01-12T11:13:55.296Z,82.30
2023-01-12T11:22:26.788Z,82.53
2023-01-12T11:31:01.299Z,82.52
2023-01-12T11:39:27.223Z,82.73
2023-01-12T11:47:59.209Z,82.66
2023-01-12T11:56:43.238Z,82.60
2023-01-12T12:05:17.757Z,82.54
2023-01-12T12:14:28.478Z,82.56
2023-01-12T12:23:16.981Z,82.61
2023-01-12T12:31:59.993Z,82.44
2023-01-12T12:41:13.029Z,82.47
2023-01-12T12:49:38.036Z,82.32
2023-01-12T12:58:05.135Z,82.19
2023-01-12T13:06:36.704Z,82.39
2023-01-12T13:15:23.389Z,82.40
2023-01-12T13:23:48.456Z,82.39
2023-01-12T13:32:55.791Z,82.47
2023-01-12T14:04:58.057Z,82.17
2023-01-12T14:13:33.582Z,82.00
2023-01-12T14:58:22.219Z,81.61
2023-01-12T15:07:01.580Z,81.61
2023-01-12T15:15:49.667Z,81.43
2023-01-12T15:24:52.290Z,81.33
2023-01-12T15:33:20.933Z,81.25
2023-01-12T15:42:03.539Z,81.45
2023-01-12T15:50:28.991Z,81.28
2023-01-12T15:58:52.287Z,81.28
2023-01-12T16:17:09.189Z,81.27
2023-01-12T16:25:32.647Z,81.27
2023-01-12T16:33:55.952Z,81.04
2023-01-12T16:42:19.445Z,81.14
2023-01-12T16:50:44.229Z,81.20
2023-01-12T16:59:08.221Z,80.97
2023-01-12T17:07:31.654Z,81.08
2023-01-12T17:15:55.683Z,80.97
2023-01-12T17:24:20.389Z,81.08
2023-01-12T17:32:45.341Z,81.06
2023-01-12T18:04:08.807Z,81.06
2023-01-12T18:12:31.215Z,81.19
2023-01-12T18:20:54.545Z,81.15
2023-01-12T18:29:20.917Z,81.13
2023-01-12T18:37:46.688Z,80.89
2023-01-12T18:46:11.950Z,80.88
2023-01-12T18:54:46.848Z,81.08
2023-01-12T19:45:44.275Z,80.92
2023-01-12T20:02:58.901Z,80.88
2023-01-12T20:11:23.676Z,80.91
2023-01-12T20:19:46.042Z,80.92
2023-01-12T20:28:11.623Z,80.90
2023-01-12T20:36:34.367Z,80.73
2023-01-12T20:44:59.702Z,80.90
2023-01-12T20:53:23.567Z,80.77
2023-01-12T21:01:48.224Z,81.03
2023-01-12T21:10:11.771Z,80.98
2023-01-12T21:18:34.421Z,80.86
2023-01-12T21:26:58.128Z,81.05
2023-01-12T21:35:20.865Z,80.84
2023-01-12T21:43:48.920Z,80.96
2023-01-12T21:52:11.086Z,80.93
2023-01-12T22:00:32.944Z,80.94
2023-01-12T22:08:54.786Z,80.86
2023-01-12T22:17:16.741Z,80.95
2023-01-12T22:25:39.198Z,81.01
2023-01-12T22:34:06.731Z,80.92
2023-01-12T22:42:47.734Z,80.95
2023-01-12T22:51:20.442Z,80.74
2023-01-12T22:59:42.700Z,80.83
2023-01-12T23:08:05.689Z,80.96
2023-01-12T23:16:28.388Z,80.95
2023-01-12T23:24:50.699Z,80.77
2023-01-12T23:33:12.866Z,80.87
2023-01-12T23:41:37.049Z,80.91
2023-01-12T23:49:59.661Z,80.81
2023-01-12T23:58:23.021Z,80.76
